createdAt,value
2022-10-23T00:01:40.875Z,10.00
2022-10-23T00:04:19.406Z,10.00
2022-10-23T00:06:47.216Z,9.90
2022-10-23T00:09:17.739Z,9.80
2022-10-23T00:11:47.832Z,9.80
2022-10-23T00:14:16.072Z,9.70
2022-10-23T00:16:42.914Z,9.80
2022-10-23T00:19:09.927Z,9.70
2022-10-23T00:21:37.208Z,9.70
2022-10-23T00:24:04.259Z,9.70
2022-10-23T00:26:31.087Z,9.70
2022-10-23T00:28:58.171Z,9.70
2022-10-23T00:31:25.869Z,9.70
2022-10-23T00:33:53.645Z,9.70
2022-10-23T00:36:21.789Z,9.60
2022-10-23T00:38:49.763Z,9.60
2022-10-23T00:41:21.896Z,9.60
2022-10-23T00:44:11.360Z,9.50
2022-10-23T00:46:39.480Z,9.40
2022-10-23T00:49:07.050Z,9.40
2022-10-23T00:51:39.183Z,9.40
2022-10-23T00:54:24.794Z,9.40
2022-10-23T00:56:54.678Z,9.40
2022-10-23T00:59:21.524Z,9.30
2022-10-23T01:01:48.995Z,9.30
2022-10-23T01:04:16.669Z,9.30
2022-10-23T01:07:17.513Z,9.30
2022-10-23T01:09:53.928Z,9.40
2022-10-23T01:13:00.588Z,9.20
2022-10-23T01:15:35.463Z,9.20
2022-10-23T01:18:26.003Z,9.20
2022-10-23T01:21:08.550Z,9.10
2022-10-23T01:23:46.159Z,9.10
2022-10-23T01:26:39.156Z,9.10
2022-10-23T01:29:23.625Z,9.00
2022-10-23T01:32:14.934Z,9.00
2022-10-23T01:35:07.595Z,9.10
2022-10-23T01:37:45.610Z,9.10
2022-10-23T01:40:21.436Z,9.10
2022-10-23T01:42:53.929Z,9.10
2022-10-23T01:45:40.069Z,9.00
2022-10-23T01:48:21.559Z,8.90
2022-10-23T01:50:50.261Z,8.90
2022-10-23T01:53:19.055Z,8.90
2022-10-23T01:55:48.673Z,8.90
2022-10-23T01:58:16.549Z,8.80
2022-10-23T02:00:46.011Z,8.80
2022-10-23T02:03:15.799Z,8.70
2022-10-23T02:05:44.161Z,8.70
2022-10-23T02:08:11.053Z,8.70
2022-10-23T02:10:58.347Z,8.80
2022-10-23T02:13:56.949Z,8.80
2022-10-23T02:16:29.707Z,8.80
2022-10-23T02:18:56.430Z,8.80
2022-10-23T02:21:38.671Z,8.90
2022-10-23T02:24:13.783Z,8.80
2022-10-23T02:26:52.624Z,8.80
2022-10-23T02:29:26.993Z,8.80
2022-10-23T02:31:53.806Z,8.80
2022-10-23T02:34:20.612Z,8.80
2022-10-23T02:36:47.551Z,8.80
2022-10-23T02:39:14.367Z,8.80
2022-10-23T02:42:04.203Z,8.80
2022-10-23T02:44:46.641Z,8.90
2022-10-23T02:47:19.799Z,9.00
2022-10-23T02:50:27.919Z,9.00
2022-10-23T02:53:16.112Z,9.10
2022-10-23T02:56:00.846Z,9.00
2022-10-23T02:58:40.654Z,9.00
2022-10-23T03:01:21.440Z,9.00
2022-10-23T03:03:53.778Z,9.10
2022-10-23T03:06:20.971Z,9.20
2022-10-23T03:09:04.174Z,9.30
2022-10-23T03:11:30.958Z,9.20
2022-10-23T03:13:57.704Z,9.20
2022-10-23T03:16:24.822Z,9.20
2022-10-23T03:18:52.073Z,9.30
2022-10-23T03:21:19.321Z,9.30
2022-10-23T03:23:46.206Z,9.30
2022-10-23T03:26:12.945Z,9.30
2022-10-23T03:28:39.714Z,9.30
2022-10-23T03:31:06.481Z,9.30
2022-10-23T03:33:33.643Z,9.30
2022-10-23T03:36:00.377Z,9.30
2022-10-23T03:38:27.177Z,9.20
2022-10-23T03:40:53.989Z,9.40
2022-10-23T03:43:20.762Z,9.40
2022-10-23T03:45:47.548Z,9.50
2022-10-23T03:48:14.847Z,9.40
2022-10-23T03:50:41.630Z,9.50
2022-10-23T03:53:08.434Z,9.50
2022-10-23T03:55:35.260Z,9.60
2022-10-23T03:58:02.050Z,9.60
2022-10-23T04:00:28.955Z,9.50
2022-10-23T04:02:55.745Z,9.50
2022-10-23T04:05:22.558Z,9.60
2022-10-23T04:07:49.617Z,9.60
2022-10-23T04:10:16.622Z,9.60
2022-10-23T04:12:43.479Z,9.60
2022-10-23T04:15:10.703Z,9.70
2022-10-23T04:17:37.460Z,9.60
2022-10-23T04:20:04.423Z,9.60
2022-10-23T04:22:31.299Z,9.60
2022-10-23T04:24:58.053Z,9.70
2022-10-23T04:27:24.831Z,9.70
2022-10-23T04:29:54.243Z,9.60
2022-10-23T04:32:23.629Z,9.60
2022-10-23T04:34:50.382Z,9.70
2022-10-23T04:37:17.568Z,9.70
2022-10-23T04:39:44.318Z,9.60
2022-10-23T04:42:11.106Z,9.60
2022-10-23T04:44:37.867Z,9.70
2022-10-23T04:47:04.762Z,9.60
2022-10-23T04:49:31.501Z,9.60
2022-10-23T04:51:58.368Z,9.70
2022-10-23T04:54:25.174Z,9.70
2022-10-23T04:56:51.926Z,9.70
2022-10-23T04:59:18.779Z,9.70
2022-10-23T05:01:45.661Z,9.70
2022-10-23T05:04:13.958Z,9.70
2022-10-23T05:06:40.779Z,9.70
2022-10-23T05:09:07.568Z,9.70
2022-10-23T05:11:34.347Z,9.80
2022-10-23T05:14:01.108Z,9.70
2022-10-23T05:17:08.376Z,9.80
2022-10-23T05:19:41.293Z,9.70
2022-10-23T05:22:09.050Z,9.70
2022-10-23T05:24:35.785Z,9.80
2022-10-23T05:27:02.766Z,9.80
2022-10-23T05:29:29.559Z,9.80
2022-10-23T05:32:01.461Z,9.80
2022-10-23T05:34:31.375Z,9.70
2022-10-23T05:36:58.238Z,9.70
2022-10-23T05:39:25.155Z,9.80
2022-10-23T05:41:52.397Z,9.80
2022-10-23T05:44:19.156Z,9.70
2022-10-23T05:46:45.946Z,9.80
2022-10-23T05:49:12.908Z,9.90
2022-10-23T05:51:40.792Z,9.90
2022-10-23T05:54:08.371Z,9.90
2022-10-23T05:56:36.797Z,10.00
2022-10-23T05:59:03.911Z,9.90
2022-10-23T06:01:30.882Z,9.80
2022-10-23T06:03:59.700Z,9.90
2022-10-23T06:06:30.358Z,10.00
2022-10-23T06:08:57.601Z,10.10
2022-10-23T06:11:24.449Z,10.00
2022-10-23T06:13:51.474Z,10.00
2022-10-23T06:16:25.504Z,9.90
2022-10-23T06:18:52.484Z,10.00
2022-10-23T06:21:20.025Z,10.00
2022-10-23T06:23:47.105Z,10.00
2022-10-23T06:26:15.699Z,10.10
2022-10-23T06:28:42.788Z,10.10
2022-10-23T06:31:15.049Z,10.10
2022-10-23T06:33:42.439Z,10.10
2022-10-23T06:36:10.739Z,10.20
2022-10-23T06:38:40.387Z,10.30
2022-10-23T06:41:13.906Z,10.20
2022-10-23T06:43:41.166Z,10.20
2022-10-23T06:46:07.964Z,10.20
2022-10-23T06:48:34.690Z,10.40
2022-10-23T06:51:06.624Z,10.30
2022-10-23T06:53:34.029Z,10.30
2022-10-23T06:56:01.247Z,10.30
2022-10-23T06:58:28.475Z,10.30
2022-10-23T07:00:55.465Z,10.30
2022-10-23T07:03:22.423Z,10.20
2022-10-23T07:05:49.295Z,10.20
2022-10-23T07:08:16.294Z,10.30
2022-10-23T07:10:43.771Z,10.40
2022-10-23T07:13:11.789Z,10.40
2022-10-23T07:15:39.776Z,10.40
2022-10-23T07:18:06.839Z,10.40
2022-10-23T07:20:33.958Z,10.50
2022-10-23T07:23:01.349Z,10.60
2022-10-23T07:25:28.084Z,10.70
2022-10-23T07:27:57.655Z,10.60
2022-10-23T07:30:24.494Z,10.60
2022-10-23T07:32:51.312Z,10.70
2022-10-23T07:35:18.505Z,10.70
2022-10-23T07:37:45.828Z,10.70
2022-10-23T07:40:12.895Z,10.60
2022-10-23T07:42:39.838Z,10.80
2022-10-23T07:45:08.754Z,10.80
2022-10-23T07:47:35.627Z,10.80
2022-10-23T07:50:02.488Z,10.80
2022-10-23T07:52:32.081Z,10.70
2022-10-23T07:55:01.985Z,10.80
2022-10-23T07:57:28.878Z,10.90
2022-10-23T07:59:55.697Z,10.90
2022-10-23T08:02:22.589Z,11.00
2022-10-23T08:04:50.375Z,11.00
2022-10-23T08:07:17.371Z,11.10
2022-10-23T08:09:44.132Z,11.20
2022-10-23T08:12:11.042Z,11.20
2022-10-23T08:14:37.832Z,11.30
2022-10-23T08:17:05.351Z,11.20
2022-10-23T08:19:32.634Z,11.40
2022-10-23T08:21:59.411Z,11.30
2022-10-23T08:24:26.175Z,11.30
2022-10-23T08:26:53.039Z,11.40
2022-10-23T08:29:19.852Z,11.50
2022-10-23T08:31:46.877Z,11.50
2022-10-23T08:34:15.320Z,11.60
2022-10-23T08:36:42.189Z,11.50
2022-10-23T08:39:09.516Z,11.50
2022-10-23T08:41:42.879Z,11.60
2022-10-23T08:44:32.436Z,11.60
2022-10-23T08:47:05.386Z,11.50
2022-10-23T08:49:53.959Z,11.50
2022-10-23T08:52:59.084Z,11.60
2022-10-23T08:55:36.841Z,11.60
2022-10-23T08:58:15.375Z,11.60
2022-10-23T09:00:43.704Z,11.60
2022-10-23T09:03:13.010Z,11.60
2022-10-23T09:06:17.062Z,11.60
2022-10-23T09:08:58.338Z,11.70
2022-10-23T09:11:33.309Z,11.60
2022-10-23T09:14:05.750Z,11.70
2022-10-23T09:16:41.482Z,11.80
2022-10-23T09:19:18.321Z,11.80
2022-10-23T09:21:49.926Z,11.80
2022-10-23T09:24:19.118Z,11.90
2022-10-23T09:26:49.620Z,11.80
2022-10-23T09:29:35.974Z,11.90
2022-10-23T09:32:04.167Z,11.80
2022-10-23T09:34:34.159Z,11.80
2022-10-23T09:37:03.999Z,11.90
2022-10-23T09:39:33.579Z,11.90
2022-10-23T09:42:04.510Z,12.00
2022-10-23T09:44:33.701Z,12.10
2022-10-23T09:47:06.257Z,12.10
2022-10-23T09:49:34.292Z,12.10
2022-10-23T09:52:10.318Z,12.20
2022-10-23T09:54:45.586Z,12.20
2022-10-23T09:57:24.434Z,12.20
2022-10-23T09:59:57.008Z,12.20
2022-10-23T10:02:30.364Z,12.40
2022-10-23T10:04:57.934Z,12.50
2022-10-23T10:07:30.217Z,12.50
2022-10-23T10:09:59.116Z,12.70
2022-10-23T10:12:40.756Z,12.70
2022-10-23T10:19:10.828Z,12.70
2022-10-23T10:21:56.927Z,12.70
2022-10-23T10:24:51.205Z,12.50
2022-10-23T10:27:20.951Z,12.50
2022-10-23T10:29:50.586Z,12.50
2022-10-23T10:32:40.592Z,12.50
2022-10-23T10:35:20.682Z,12.40
2022-10-23T10:37:50.616Z,12.40
2022-10-23T10:40:27.614Z,12.30
2022-10-23T10:43:09.569Z,12.40
2022-10-23T10:45:47.086Z,12.50
2022-10-23T10:48:38.867Z,12.50
2022-10-23T10:51:29.466Z,12.50
2022-10-23T10:54:02.248Z,12.60
2022-10-23T10:56:33.527Z,12.60
2022-10-23T10:59:05.010Z,12.60
2022-10-23T11:01:45.223Z,12.60
2022-10-23T11:04:22.520Z,12.50
2022-10-23T11:06:54.203Z,12.60
2022-10-23T11:09:24.397Z,12.60
2022-10-23T11:11:51.440Z,12.60
2022-10-23T11:14:21.005Z,12.70
2022-10-23T11:16:53.152Z,12.80
2022-10-23T11:19:36.215Z,12.90
2022-10-23T11:22:12.436Z,12.90
2022-10-23T11:24:58.313Z,13.00
2022-10-23T11:27:37.358Z,13.00
2022-10-23T11:30:26.263Z,13.20
2022-10-23T11:33:02.642Z,13.20
2022-10-23T11:35:32.555Z,13.20
2022-10-23T11:38:17.799Z,13.20
2022-10-23T11:40:48.148Z,13.20
2022-10-23T11:43:26.915Z,13.20
2022-10-23T11:45:53.754Z,13.30
2022-10-23T11:48:22.426Z,13.40
2022-10-23T11:50:50.699Z,13.40
2022-10-23T11:53:46.776Z,13.40
2022-10-23T11:56:14.570Z,13.50
2022-10-23T11:58:50.222Z,13.60
2022-10-23T12:01:44.025Z,13.50
2022-10-23T12:04:13.869Z,13.30
2022-10-23T12:06:45.888Z,13.30
2022-10-23T12:09:24.771Z,13.30
2022-10-23T12:12:09.797Z,13.20
2022-10-23T12:14:38.362Z,13.20
2022-10-23T12:17:23.360Z,13.20
2022-10-23T12:19:55.447Z,13.10
2022-10-23T12:22:26.809Z,13.10
2022-10-23T12:25:17.193Z,13.00
2022-10-23T12:28:03.588Z,13.00
2022-10-23T12:30:45.881Z,12.90
2022-10-23T12:33:46.698Z,12.80
2022-10-23T12:36:16.204Z,12.80
2022-10-23T12:38:46.015Z,12.90
2022-10-23T12:41:19.193Z,13.00
2022-10-23T12:43:55.892Z,12.90
2022-10-23T12:46:29.083Z,13.00
2022-10-23T12:48:59.409Z,13.00
2022-10-23T12:51:32.305Z,13.00
2022-10-23T12:53:59.424Z,13.00
2022-10-23T12:56:29.400Z,13.00
2022-10-23T12:59:02.462Z,12.90
2022-10-23T13:01:32.489Z,12.90
2022-10-23T13:04:13.248Z,12.90
2022-10-23T13:06:40.616Z,12.90
2022-10-23T13:09:22.233Z,12.80
2022-10-23T13:11:50.536Z,12.70
2022-10-23T13:14:43.713Z,12.70
2022-10-23T13:17:12.348Z,12.70
2022-10-23T13:19:39.287Z,12.70
2022-10-23T13:22:18.952Z,12.60
2022-10-23T13:24:45.896Z,12.60
2022-10-23T13:27:31.840Z,12.50
2022-10-23T13:29:58.672Z,12.50
2022-10-23T13:32:29.594Z,12.50
2022-10-23T13:35:10.312Z,12.40
2022-10-23T13:37:46.055Z,12.40
2022-10-23T13:40:27.883Z,12.40
2022-10-23T13:42:56.237Z,12.30
2022-10-23T13:45:25.481Z,12.20
2022-10-23T13:47:53.164Z,12.20
2022-10-23T13:50:20.262Z,12.30
2022-10-23T13:52:47.091Z,12.30
2022-10-23T13:55:23.858Z,12.30
2022-10-23T13:57:50.679Z,12.20
2022-10-23T14:00:18.502Z,12.30
2022-10-23T14:02:45.510Z,12.20
2022-10-23T14:05:12.404Z,12.20
2022-10-23T14:07:39.256Z,12.10
2022-10-23T14:10:06.661Z,12.00
2022-10-23T14:12:43.158Z,11.90
2022-10-23T14:15:11.356Z,11.80
2022-10-23T14:17:38.242Z,11.90
2022-10-23T14:20:06.306Z,11.80
2022-10-23T14:22:33.450Z,11.90
2022-10-23T14:25:00.275Z,11.90
2022-10-23T14:27:27.117Z,11.90
2022-10-23T14:29:54.004Z,11.80
2022-10-23T14:32:20.776Z,11.80
2022-10-23T14:34:51.915Z,11.80
2022-10-23T14:37:19.729Z,11.70
2022-10-23T14:39:50.006Z,11.70
2022-10-23T14:42:18.071Z,11.70
2022-10-23T14:44:45.236Z,11.60
2022-10-23T14:47:12.152Z,11.60
2022-10-23T14:49:40.387Z,11.60
2022-10-23T14:52:07.660Z,11.60
2022-10-23T14:54:36.310Z,11.60
2022-10-23T14:57:03.647Z,11.60
2022-10-23T14:59:30.588Z,11.60
2022-10-23T15:01:57.482Z,11.60
2022-10-23T15:04:24.499Z,11.70
2022-10-23T15:06:51.739Z,11.60
2022-10-23T15:09:20.246Z,11.60
2022-10-23T15:11:47.720Z,11.60
2022-10-23T15:14:14.610Z,11.50
2022-10-23T15:16:42.227Z,11.50
2022-10-23T15:19:13.574Z,11.50
2022-10-23T15:21:44.414Z,11.50
2022-10-23T15:24:11.290Z,11.60
2022-10-23T15:26:38.565Z,11.60
2022-10-23T15:29:05.633Z,11.70
2022-10-23T15:31:37.647Z,11.60
2022-10-23T15:34:05.858Z,11.50
2022-10-23T15:36:32.913Z,11.50
2022-10-23T15:38:59.989Z,11.50
2022-10-23T15:41:34.771Z,11.50
2022-10-23T15:44:04.002Z,11.50
2022-10-23T15:46:30.889Z,11.40
2022-10-23T15:48:57.692Z,11.40
2022-10-23T15:51:24.780Z,11.40
2022-10-23T15:53:51.626Z,11.40
2022-10-23T15:56:18.470Z,11.50
2022-10-23T15:58:45.333Z,11.40
2022-10-23T16:01:12.545Z,11.40
2022-10-23T16:03:39.877Z,11.50
2022-10-23T16:06:08.978Z,11.40
2022-10-23T16:08:36.515Z,11.40
2022-10-23T16:11:04.223Z,11.40
2022-10-23T16:13:31.053Z,11.40
2022-10-23T16:15:57.897Z,11.40
2022-10-23T16:18:24.790Z,11.40
2022-10-23T16:20:54.962Z,11.40
2022-10-23T16:23:22.127Z,11.40
2022-10-23T16:25:49.021Z,11.40
2022-10-23T16:28:15.774Z,11.40
2022-10-23T16:30:43.517Z,11.40
2022-10-23T16:33:11.028Z,11.40
2022-10-23T16:35:38.099Z,11.40
2022-10-23T16:38:05.143Z,11.40
2022-10-23T16:40:32.065Z,11.40
2022-10-23T16:42:59.047Z,11.40
2022-10-23T16:45:25.866Z,11.40
2022-10-23T16:47:52.689Z,11.40
2022-10-23T16:50:19.532Z,11.40
2022-10-23T16:52:47.565Z,11.50
2022-10-23T16:55:16.084Z,11.50
2022-10-23T16:57:42.970Z,11.50
2022-10-23T17:00:10.263Z,11.50
2022-10-23T17:02:37.778Z,11.40
2022-10-23T17:05:05.052Z,11.40
2022-10-23T17:07:32.583Z,11.40
2022-10-23T17:09:59.422Z,11.50
2022-10-23T17:12:26.231Z,11.50
2022-10-23T17:14:53.146Z,11.50
2022-10-23T17:17:20.088Z,11.50
2022-10-23T17:19:47.174Z,11.50
2022-10-23T17:22:14.925Z,11.50
2022-10-23T17:24:45.123Z,11.60
2022-10-23T17:27:14.417Z,11.50
2022-10-23T17:29:41.280Z,11.50
2022-10-23T17:32:08.273Z,11.60
2022-10-23T17:34:35.308Z,11.50
2022-10-23T17:37:02.144Z,11.50
2022-10-23T17:39:29.674Z,11.50
2022-10-23T17:41:57.443Z,11.60
2022-10-23T17:44:24.399Z,11.60
2022-10-23T17:46:54.830Z,11.60
2022-10-23T17:49:23.249Z,11.60
2022-10-23T17:51:57.411Z,11.50
2022-10-23T17:54:26.537Z,11.60
2022-10-23T17:56:53.427Z,11.60
2022-10-23T17:59:20.264Z,11.60
2022-10-23T18:01:48.869Z,11.70
2022-10-23T18:04:18.098Z,11.60
2022-10-23T18:06:50.850Z,11.60
2022-10-23T18:09:18.311Z,11.70
2022-10-23T18:11:48.158Z,11.60
2022-10-23T18:14:16.751Z,11.70
2022-10-23T18:16:45.672Z,11.70
2022-10-23T18:19:13.881Z,11.70
2022-10-23T18:21:40.907Z,11.70
2022-10-23T18:24:07.858Z,11.70
2022-10-23T18:26:35.223Z,11.80
2022-10-23T18:29:07.210Z,11.80
2022-10-23T18:31:35.534Z,11.70
2022-10-23T18:34:07.453Z,11.70
2022-10-23T18:36:37.001Z,11.70
2022-10-23T18:39:05.585Z,11.70
2022-10-23T18:41:37.703Z,11.70
2022-10-23T18:44:05.644Z,11.70
2022-10-23T18:46:32.614Z,11.70
2022-10-23T18:48:59.471Z,11.70
2022-10-23T18:51:29.219Z,11.70
2022-10-23T18:53:56.174Z,11.70
2022-10-23T18:56:24.642Z,11.70
2022-10-23T18:58:53.389Z,11.70
2022-10-23T19:01:21.027Z,11.70
2022-10-23T19:03:48.395Z,11.70
2022-10-23T19:06:16.004Z,11.70
2022-10-23T19:08:44.653Z,11.70
2022-10-23T19:11:13.129Z,11.70
2022-10-23T19:13:41.375Z,11.70
2022-10-23T19:16:16.208Z,11.70
2022-10-23T19:18:47.307Z,11.70
2022-10-23T19:21:15.157Z,11.70
2022-10-23T19:23:42.761Z,11.70
2022-10-23T19:26:12.024Z,11.70
2022-10-23T19:28:42.607Z,11.70
2022-10-23T19:31:10.518Z,11.70
2022-10-23T19:33:39.013Z,11.70
2022-10-23T19:36:08.863Z,11.70
2022-10-23T19:38:37.221Z,11.70
2022-10-23T19:41:04.026Z,11.70
2022-10-23T19:43:30.917Z,11.70
2022-10-23T19:46:03.965Z,11.80
2022-10-23T19:48:33.228Z,11.70
2022-10-23T19:51:00.122Z,11.70
2022-10-23T19:53:27.023Z,11.70
2022-10-23T19:56:02.803Z,11.70
2022-10-23T19:58:29.629Z,11.70
2022-10-23T20:00:56.376Z,11.70
2022-10-23T20:03:23.245Z,11.70
2022-10-23T20:05:50.226Z,11.70
2022-10-23T20:08:17.065Z,11.70
2022-10-23T20:10:46.486Z,11.70
2022-10-23T20:13:19.818Z,11.80
2022-10-23T20:15:47.469Z,11.70
2022-10-23T20:18:14.407Z,11.70
2022-10-23T20:20:42.121Z,11.70
2022-10-23T20:23:09.151Z,11.70
2022-10-23T20:25:35.971Z,11.70
2022-10-23T20:28:03.430Z,11.70
2022-10-23T20:30:30.196Z,11.80
2022-10-23T20:32:57.011Z,11.70
2022-10-23T20:35:24.025Z,11.70
2022-10-23T20:37:50.857Z,11.70
2022-10-23T20:40:17.663Z,11.70
2022-10-23T20:42:44.388Z,11.70
2022-10-23T20:45:11.334Z,11.70
2022-10-23T20:47:38.206Z,11.70
2022-10-23T20:50:05.394Z,11.70
2022-10-23T20:54:59.997Z,11.70
2022-10-23T20:57:26.748Z,11.70
2022-10-23T20:59:53.654Z,11.80
2022-10-23T21:02:20.522Z,11.80
2022-10-23T21:04:47.777Z,11.80
2022-10-23T21:07:14.552Z,11.80
2022-10-23T21:09:41.361Z,11.80
2022-10-23T21:12:08.850Z,11.80
2022-10-23T21:14:36.026Z,11.80
2022-10-23T21:17:03.319Z,11.80
2022-10-23T21:19:30.103Z,11.80
2022-10-23T21:21:56.921Z,11.80
2022-10-23T21:24:24.635Z,11.80
2022-10-23T21:26:51.516Z,11.80
2022-10-23T21:29:19.833Z,11.80
2022-10-23T21:31:55.614Z,11.80
2022-10-23T21:34:23.511Z,11.80
2022-10-23T21:39:37.472Z,11.70
2022-10-23T21:42:04.793Z,11.60
2022-10-23T21:44:31.539Z,11.60
2022-10-23T21:46:58.345Z,11.60
2022-10-23T21:49:25.093Z,11.60
2022-10-23T21:51:52.014Z,11.60
2022-10-23T21:54:18.792Z,11.60
2022-10-23T21:56:48.892Z,11.60
2022-10-23T21:59:19.816Z,11.60
2022-10-23T22:01:48.607Z,11.60
2022-10-23T22:04:19.886Z,11.60
2022-10-23T22:06:48.634Z,11.60
2022-10-23T22:09:19.512Z,11.60
2022-10-23T22:11:48.208Z,11.60
2022-10-23T22:14:15.131Z,11.60
2022-10-23T22:16:42.246Z,11.60
2022-10-23T22:19:12.501Z,11.50
2022-10-23T22:21:39.662Z,11.60
2022-10-23T22:24:06.878Z,11.60
2022-10-23T22:26:45.561Z,11.60
2022-10-23T22:29:14.965Z,11.60
2022-10-23T22:31:45.514Z,11.60
2022-10-23T22:34:27.019Z,11.60
2022-10-23T22:37:05.890Z,11.60
2022-10-23T22:39:32.703Z,11.60
2022-10-23T22:41:59.447Z,11.60
2022-10-23T22:44:26.264Z,11.60
2022-10-23T22:46:53.334Z,11.60
2022-10-23T22:49:20.156Z,11.70
2022-10-23T22:51:47.233Z,11.70
2022-10-23T22:54:14.073Z,11.70
2022-10-23T22:56:42.427Z,11.60
2022-10-23T22:59:09.171Z,11.60
2022-10-23T23:01:43.480Z,11.70
2022-10-23T23:04:36.557Z,11.60
2022-10-23T23:06:59.806Z,11.60
2022-10-23T23:09:26.619Z,11.70
2022-10-23T23:11:53.375Z,11.70
2022-10-23T23:14:23.669Z,11.70
2022-10-23T23:16:52.484Z,11.70
2022-10-23T23:19:19.855Z,11.70
2022-10-23T23:21:46.682Z,11.70
2022-10-23T23:24:13.629Z,11.80
2022-10-23T23:26:40.693Z,11.70
2022-10-23T23:29:07.517Z,11.80
2022-10-23T23:31:34.270Z,11.80
2022-10-23T23:34:01.081Z,11.80
2022-10-23T23:36:28.767Z,11.90
2022-10-23T23:38:56.727Z,11.80
2022-10-23T23:41:24.734Z,11.80
2022-10-23T23:43:54.472Z,11.80
2022-10-23T23:46:21.275Z,11.80
2022-10-23T23:48:49.513Z,11.80
2022-10-23T23:51:18.916Z,11.80
2022-10-23T23:53:45.776Z,11.80
2022-10-23T23:56:12.549Z,11.80
2022-10-23T23:58:39.475Z,11.80
